createdAt,value
2019-06-10T00:02:22.779Z,14.77
2019-06-10T00:04:56.105Z,14.76
2019-06-10T00:22:45.157Z,14.56
2019-06-10T00:25:21.028Z,14.53
2019-06-10T00:27:51.295Z,14.53
2019-06-10T00:30:21.906Z,14.54
2019-06-10T00:32:52.378Z,14.57
2019-06-10T00:35:22.631Z,14.62
2019-06-10T00:37:55.899Z,14.62
2019-06-10T00:40:26.328Z,14.64
2019-06-10T00:43:03.530Z,14.64
2019-06-10T00:45:32.290Z,14.65
2019-06-10T00:48:14.800Z,14.69
2019-06-10T00:50:41.141Z,14.73
2019-06-10T00:53:14.183Z,14.65
2019-06-10T00:55:42.905Z,14.56
2019-06-10T00:58:17.721Z,14.52
2019-06-10T01:00:51.458Z,14.46
2019-06-10T01:03:31.384Z,14.43
2019-06-10T01:06:03.444Z,14.42
2019-06-10T01:08:36.870Z,14.44
2019-06-10T01:11:11.634Z,14.46
2019-06-10T01:13:41.375Z,14.41
2019-06-10T01:16:12.605Z,14.42
2019-06-10T01:18:53.444Z,14.47
2019-06-10T01:21:23.049Z,14.48
2019-06-10T01:23:57.715Z,14.47
2019-06-10T01:26:31.223Z,14.49
2019-06-10T01:32:50.677Z,14.49
2019-06-10T01:35:23.920Z,14.54
2019-06-10T01:37:58.163Z,14.48
2019-06-10T01:40:28.557Z,14.45
2019-06-10T01:43:24.455Z,14.42
2019-06-10T01:45:54.757Z,14.36
2019-06-10T01:48:44.009Z,14.33
2019-06-10T01:51:11.915Z,14.32
2019-06-10T01:53:43.548Z,14.29
2019-06-10T01:56:17.353Z,14.34
2019-06-10T01:58:48.198Z,14.38
2019-06-10T02:01:31.193Z,14.44
2019-06-10T02:04:14.350Z,14.46
2019-06-10T02:06:43.868Z,14.49
2019-06-10T02:09:15.549Z,14.46
2019-06-10T02:11:48.608Z,14.45
2019-06-10T02:14:20.357Z,14.45
2019-06-10T02:16:50.973Z,14.43
2019-06-10T02:19:22.959Z,14.45
2019-06-10T02:21:54.181Z,14.48
2019-06-10T02:24:28.071Z,14.46
2019-06-10T02:27:00.902Z,14.44
2019-06-10T02:29:30.872Z,14.58
2019-06-10T02:32:22.885Z,14.49
2019-06-10T02:35:03.700Z,14.46
2019-06-10T02:37:30.807Z,14.45
2019-06-10T02:39:54.376Z,14.38
2019-06-10T02:42:36.092Z,14.34
2019-06-10T02:45:09.157Z,14.33
2019-06-10T02:47:39.750Z,14.40
2019-06-10T02:50:14.287Z,14.36
2019-06-10T02:52:44.462Z,14.41
2019-06-10T02:55:16.309Z,14.40
2019-06-10T02:57:46.839Z,14.43
2019-06-10T03:00:31.242Z,14.45
2019-06-10T03:02:49.364Z,14.50
2019-06-10T03:05:25.609Z,14.55
2019-06-10T03:07:54.700Z,14.60
2019-06-10T03:10:31.034Z,14.64
2019-06-10T03:12:57.013Z,14.57
2019-06-10T03:15:28.675Z,14.55
2019-06-10T03:17:58.942Z,14.53
2019-06-10T03:20:29.200Z,14.55
2019-06-10T03:22:59.480Z,14.50
2019-06-10T03:25:30.008Z,14.47
2019-06-10T03:28:00.309Z,14.45
2019-06-10T03:30:47.233Z,14.34
2019-06-10T03:33:04.898Z,14.29
2019-06-10T03:35:35.556Z,14.24
2019-06-10T03:38:06.082Z,14.21
2019-06-10T03:40:36.614Z,14.19
2019-06-10T03:43:07.190Z,14.22
2019-06-10T03:45:37.742Z,14.18
2019-06-10T03:48:08.597Z,14.18
2019-06-10T03:50:38.941Z,14.15
2019-06-10T03:53:09.625Z,14.07
2019-06-10T03:55:42.242Z,14.02
2019-06-10T03:58:12.573Z,13.98
2019-06-10T04:00:43.210Z,13.98
2019-06-10T04:03:13.921Z,13.95
2019-06-10T04:05:44.171Z,13.93
2019-06-10T04:08:14.625Z,13.85
2019-06-10T04:10:45.003Z,13.85
2019-06-10T04:13:15.845Z,13.87
2019-06-10T04:15:46.158Z,13.90
2019-06-10T04:18:17.751Z,13.94
2019-06-10T04:20:48.466Z,13.92
2019-06-10T04:23:19.681Z,13.87
2019-06-10T04:25:50.059Z,13.88
2019-06-10T04:28:24.052Z,13.87
2019-06-10T04:30:54.366Z,13.89
2019-06-10T04:34:03.363Z,13.91
2019-06-10T04:36:33.715Z,13.97
2019-06-10T04:39:06.058Z,13.99
2019-06-10T04:41:36.636Z,14.04
2019-06-10T04:44:07.051Z,14.04
2019-06-10T04:46:37.430Z,14.06
2019-06-10T04:50:03.093Z,14.10
2019-06-10T04:52:36.619Z,14.14
2019-06-10T04:55:07.229Z,14.16
2019-06-10T04:57:37.533Z,14.18
2019-06-10T05:00:12.041Z,14.21
2019-06-10T05:02:43.126Z,14.23
2019-06-10T05:05:14.016Z,14.26
2019-06-10T05:07:45.701Z,14.25
2019-06-10T05:10:17.000Z,14.28
2019-06-10T05:12:47.311Z,14.32
2019-06-10T05:15:17.703Z,14.37
2019-06-10T05:17:52.695Z,14.42
2019-06-10T05:20:43.676Z,14.52
2019-06-10T05:22:55.145Z,14.57
2019-06-10T05:25:27.222Z,14.61
2019-06-10T05:27:57.751Z,14.61
2019-06-10T05:30:31.773Z,14.62
2019-06-10T05:33:03.039Z,14.58
2019-06-10T05:35:34.052Z,14.62
2019-06-10T05:38:05.118Z,14.73
2019-06-10T05:40:35.616Z,14.76
2019-06-10T05:43:06.074Z,14.77
2019-06-10T05:45:36.597Z,14.78
2019-06-10T05:48:06.939Z,14.85
2019-06-10T05:50:37.490Z,14.84
2019-06-10T05:53:08.040Z,14.86
2019-06-10T05:55:46.967Z,14.93
2019-06-10T05:58:17.260Z,15.04
2019-06-10T06:00:48.355Z,15.11
2019-06-10T06:03:18.683Z,15.24
2019-06-10T06:05:53.393Z,15.30
2019-06-10T06:08:27.085Z,15.31
2019-06-10T06:10:57.677Z,15.34
2019-06-10T06:13:27.971Z,15.42
2019-06-10T06:15:58.832Z,15.42
2019-06-10T06:18:33.218Z,15.42
2019-06-10T06:21:19.438Z,15.45
2019-06-10T06:23:37.009Z,15.48
2019-06-10T06:26:16.478Z,15.58
2019-06-10T06:28:44.558Z,15.63
2019-06-10T06:31:15.373Z,15.68
2019-06-10T06:33:52.661Z,15.76
2019-06-10T06:36:22.740Z,15.78
2019-06-10T06:38:53.996Z,15.84
2019-06-10T06:41:24.621Z,15.93
2019-06-10T06:43:56.774Z,16.07
2019-06-10T06:46:27.607Z,16.17
2019-06-10T06:48:57.912Z,16.22
2019-06-10T06:51:42.481Z,16.43
2019-06-10T06:54:03.098Z,16.46
2019-06-10T06:56:35.634Z,16.58
2019-06-10T06:59:04.816Z,16.60
2019-06-10T07:01:37.737Z,16.71
2019-06-10T07:04:12.860Z,16.81
2019-06-10T07:06:43.759Z,16.77
2019-06-10T07:09:16.623Z,16.78
2019-06-10T07:11:49.963Z,16.82
2019-06-10T07:14:23.777Z,16.78
2019-06-10T07:16:56.815Z,16.79
2019-06-10T07:19:39.227Z,16.91
2019-06-10T07:22:16.310Z,17.05
2019-06-10T07:24:47.277Z,17.23
2019-06-10T07:27:16.166Z,17.62
2019-06-10T07:29:47.781Z,17.89
2019-06-10T07:32:22.536Z,18.16
2019-06-10T07:34:52.601Z,18.34
2019-06-10T07:37:23.322Z,18.49
2019-06-10T07:39:54.118Z,18.47
2019-06-10T07:42:53.050Z,18.49
2019-06-10T07:45:24.827Z,18.51
2019-06-10T07:48:08.563Z,18.44
2019-06-10T07:50:42.573Z,18.37
2019-06-10T07:53:12.798Z,18.29
2019-06-10T07:55:46.529Z,18.28
2019-06-10T07:58:22.312Z,18.42
2019-06-10T08:00:53.435Z,18.45
2019-06-10T08:03:28.088Z,18.66
2019-06-10T08:06:03.038Z,18.77
2019-06-10T08:08:33.087Z,18.76
2019-06-10T08:11:06.234Z,18.79
2019-06-10T08:13:39.376Z,18.83
2019-06-10T08:16:12.792Z,18.95
2019-06-10T08:19:14.371Z,19.07
2019-06-10T08:21:15.859Z,19.13
2019-06-10T08:23:59.420Z,19.32
2019-06-10T08:26:32.420Z,19.44
2019-06-10T08:29:04.947Z,19.57
2019-06-10T08:31:36.737Z,19.55
2019-06-10T08:34:12.995Z,19.73
2019-06-10T08:36:46.061Z,19.68
2019-06-10T08:39:28.428Z,19.52
2019-06-10T08:42:04.682Z,19.44
2019-06-10T08:44:38.823Z,19.33
2019-06-10T08:47:44.337Z,19.20
2019-06-10T08:50:15.102Z,19.31
2019-06-10T08:53:03.715Z,19.10
2019-06-10T08:55:29.953Z,19.03
2019-06-10T08:58:23.096Z,18.97
2019-06-10T09:00:53.752Z,18.94
2019-06-10T09:03:33.093Z,19.03
2019-06-10T09:06:05.562Z,19.05
2019-06-10T09:08:47.712Z,19.02
2019-06-10T09:11:32.938Z,18.88
2019-06-10T09:14:20.270Z,18.79
2019-06-10T09:17:03.346Z,18.74
2019-06-10T09:19:38.587Z,18.66
2019-06-10T09:22:32.719Z,18.78
2019-06-10T09:24:55.049Z,19.12
2019-06-10T09:27:28.326Z,19.91
2019-06-10T09:30:02.969Z,21.13
2019-06-10T09:32:33.487Z,21.52
2019-06-10T09:35:04.645Z,21.66
2019-06-10T09:37:39.998Z,22.54
2019-06-10T09:40:18.560Z,22.48
2019-06-10T09:43:14.242Z,22.42
2019-06-10T09:45:50.399Z,22.36
2019-06-10T09:48:29.124Z,22.46
2019-06-10T09:51:02.708Z,22.44
2019-06-10T09:53:51.382Z,23.12
2019-06-10T09:56:26.153Z,23.09
2019-06-10T09:58:57.690Z,23.30
2019-06-10T10:01:50.242Z,24.11
2019-06-10T10:04:29.032Z,25.05
2019-06-10T10:07:03.072Z,26.23
2019-06-10T10:09:37.075Z,26.99
2019-06-10T10:12:22.696Z,26.17
2019-06-10T10:15:29.858Z,25.34
2019-06-10T10:17:48.312Z,25.12
2019-06-10T10:20:30.455Z,25.08
2019-06-10T10:26:03.392Z,24.34
2019-06-10T10:28:42.374Z,23.41
2019-06-10T10:31:32.346Z,23.43
2019-06-10T10:38:16.304Z,23.78
2019-06-10T10:51:37.771Z,23.53
2019-06-10T10:54:29.321Z,23.17
2019-06-10T10:57:16.665Z,23.30
2019-06-10T10:59:56.174Z,23.40
2019-06-10T11:03:25.608Z,23.83
2019-06-10T11:06:46.183Z,23.60
2019-06-10T11:23:14.668Z,22.61
2019-06-10T11:34:06.038Z,21.74
2019-06-10T11:40:24.308Z,21.16
2019-06-10T11:43:16.599Z,21.16
2019-06-10T11:46:46.652Z,21.21
2019-06-10T11:50:23.315Z,21.40
2019-06-10T12:01:39.107Z,21.24
2019-06-10T12:24:43.295Z,20.75
2019-06-10T12:27:55.236Z,20.87
2019-06-10T12:31:01.068Z,21.22
2019-06-10T12:38:22.761Z,21.95
2019-06-10T12:51:23.706Z,22.05
2019-06-10T12:52:53.007Z,21.75
2019-06-10T12:56:52.808Z,21.41
2019-06-10T12:59:58.445Z,21.12
2019-06-10T13:07:29.499Z,20.99
2019-06-10T13:10:33.320Z,20.86
2019-06-10T13:17:16.487Z,20.55
2019-06-10T13:20:06.177Z,20.29
2019-06-10T13:24:03.701Z,19.90
2019-06-10T13:27:04.754Z,19.78
2019-06-10T13:45:53.285Z,18.95
2019-06-10T13:49:49.731Z,18.89
2019-06-10T13:52:43.097Z,18.80
2019-06-10T13:55:43.595Z,18.72
2019-06-10T14:02:14.729Z,18.19
2019-06-10T14:05:57.782Z,17.98
2019-06-10T14:12:55.034Z,17.69
2019-06-10T14:15:35.721Z,17.55
2019-06-10T14:18:23.646Z,17.48
2019-06-10T14:21:35.167Z,17.45
2019-06-10T14:24:06.178Z,17.42
2019-06-10T14:39:03.932Z,17.32
2019-06-10T14:42:33.104Z,17.34
2019-06-10T14:45:35.214Z,17.32
2019-06-10T14:50:53.175Z,17.30
2019-06-10T14:52:13.497Z,17.28
2019-06-10T14:55:16.395Z,17.27
2019-06-10T15:01:52.044Z,17.26
2019-06-10T15:05:32.352Z,17.27
2019-06-10T15:12:02.887Z,17.15
2019-06-10T15:14:59.414Z,17.05
2019-06-10T15:17:47.324Z,17.01
2019-06-10T15:20:53.611Z,17.12
2019-06-10T15:24:48.188Z,17.19
2019-06-10T15:27:33.843Z,17.25
2019-06-10T15:30:27.348Z,17.24
2019-06-10T15:33:10.449Z,17.16
2019-06-10T15:36:48.530Z,17.10
2019-06-10T15:38:57.898Z,17.02
2019-06-10T15:41:54.537Z,17.04
2019-06-10T15:45:02.783Z,17.04
2019-06-10T15:47:48.094Z,17.05
2019-06-10T15:50:29.069Z,17.10
2019-06-10T15:53:51.447Z,16.94
2019-06-10T15:56:56.173Z,17.05
2019-06-10T15:59:59.796Z,17.01
2019-06-10T16:02:43.256Z,16.85
2019-06-10T16:05:25.169Z,16.85
2019-06-10T16:08:39.856Z,16.83
2019-06-10T16:11:41.097Z,16.92
2019-06-10T16:14:16.631Z,16.82
2019-06-10T16:17:16.129Z,16.75
2019-06-10T16:19:53.362Z,16.68
2019-06-10T16:23:34.069Z,16.68
2019-06-10T16:26:38.560Z,16.60
2019-06-10T16:30:18.394Z,16.56
2019-06-10T16:32:53.209Z,16.60
2019-06-10T16:36:12.314Z,16.62
2019-06-10T16:39:27.459Z,16.65
2019-06-10T16:42:57.779Z,16.63
2019-06-10T16:49:48.071Z,16.53
2019-06-10T16:56:47.543Z,16.43
2019-06-10T16:59:46.767Z,16.29
2019-06-10T17:10:52.265Z,16.11
2019-06-10T17:14:20.057Z,16.16
2019-06-10T17:39:52.908Z,15.92
2019-06-10T17:46:57.244Z,15.86
2019-06-10T17:49:28.675Z,15.86
2019-06-10T17:52:12.986Z,15.84
2019-06-10T17:55:03.350Z,15.86
2019-06-10T17:57:36.237Z,15.90
2019-06-10T18:00:12.212Z,15.88
2019-06-10T18:02:43.123Z,15.94
2019-06-10T18:05:14.146Z,15.98
2019-06-10T18:11:35.790Z,16.06
2019-06-10T18:14:24.511Z,16.02
2019-06-10T18:16:56.828Z,16.03
2019-06-10T18:19:37.039Z,16.03
2019-06-10T18:22:09.558Z,16.01
2019-06-10T18:24:44.524Z,16.07
2019-06-10T18:27:36.762Z,16.05
2019-06-10T18:30:14.166Z,16.02
2019-06-10T18:32:55.730Z,16.01
2019-06-10T18:35:34.778Z,15.99
2019-06-10T18:38:05.974Z,15.97
2019-06-10T18:40:49.461Z,15.97
2019-06-10T18:43:23.148Z,15.95
2019-06-10T18:46:03.759Z,15.95
2019-06-10T18:48:38.187Z,15.99
2019-06-10T18:51:12.693Z,16.02
2019-06-10T18:54:01.643Z,16.02
2019-06-10T18:56:34.257Z,16.00
2019-06-10T18:59:16.498Z,15.99
2019-06-10T19:01:49.770Z,15.98
2019-06-10T19:04:38.813Z,15.99
2019-06-10T19:07:18.003Z,15.99
2019-06-10T19:09:52.859Z,16.01
2019-06-10T19:12:25.029Z,16.02
2019-06-10T19:15:31.860Z,16.03
2019-06-10T19:27:11.226Z,16.01
2019-06-10T19:30:47.519Z,15.99
2019-06-10T19:36:08.713Z,16.00
2019-06-10T19:38:49.461Z,16.00
2019-06-10T19:41:25.990Z,16.01
2019-06-10T19:46:52.377Z,15.90
2019-06-10T19:49:23.323Z,15.90
2019-06-10T19:51:55.417Z,15.95
2019-06-10T19:54:26.825Z,15.95
2019-06-10T19:57:02.524Z,15.98
2019-06-10T19:59:53.772Z,16.00
2019-06-10T20:02:12.551Z,15.95
2019-06-10T20:04:45.549Z,15.90
2019-06-10T20:07:25.841Z,15.92
2019-06-10T20:10:02.693Z,15.93
2019-06-10T20:12:34.362Z,15.90
2019-06-10T20:15:07.134Z,15.88
2019-06-10T20:21:12.868Z,15.89
2019-06-10T20:23:46.034Z,15.89
2019-06-10T20:26:17.800Z,15.88
2019-06-10T20:28:53.091Z,15.83
2019-06-10T20:31:22.174Z,15.82
2019-06-10T20:33:55.897Z,15.81
2019-06-10T20:36:27.448Z,15.77
2019-06-10T20:38:59.937Z,15.65
2019-06-10T20:41:30.598Z,15.61
2019-06-10T20:44:02.788Z,15.59
2019-06-10T20:46:33.651Z,15.63
2019-06-10T20:49:06.325Z,15.59
2019-06-10T20:52:08.077Z,15.58
2019-06-10T20:54:47.815Z,15.56
2019-06-10T20:57:32.968Z,15.58
2019-06-10T21:00:22.653Z,15.58
2019-06-10T21:02:56.824Z,15.57
2019-06-10T21:05:55.859Z,15.52
2019-06-10T21:08:33.354Z,15.51
2019-06-10T21:11:08.618Z,15.53
2019-06-10T21:13:46.947Z,15.53
2019-06-10T21:16:16.187Z,15.54
2019-06-10T21:18:49.083Z,15.56
2019-06-10T21:21:22.447Z,15.50
2019-06-10T21:23:54.125Z,15.46
2019-06-10T21:26:24.651Z,15.45
2019-06-10T21:28:58.818Z,15.48
2019-06-10T21:31:33.280Z,15.47
2019-06-10T21:34:07.198Z,15.46
2019-06-10T21:36:39.231Z,15.47
2019-06-10T21:39:09.817Z,15.45
2019-06-10T21:41:44.066Z,15.41
2019-06-10T21:44:15.194Z,15.43
2019-06-10T21:46:47.615Z,15.42
2019-06-10T21:49:19.061Z,15.39
2019-06-10T21:51:55.316Z,15.37
2019-06-10T21:54:25.160Z,15.42
2019-06-10T21:56:55.905Z,15.40
2019-06-10T21:59:26.457Z,15.39
2019-06-10T22:01:56.871Z,15.36
2019-06-10T22:04:27.414Z,15.34
2019-06-10T22:07:00.350Z,15.30
2019-06-10T22:09:33.973Z,15.31
2019-06-10T22:12:11.994Z,15.32
2019-06-10T22:14:44.154Z,15.26
2019-06-10T22:17:15.027Z,15.23
2019-06-10T22:19:46.573Z,15.20
2019-06-10T22:22:17.802Z,15.18
2019-06-10T22:24:48.828Z,15.20
2019-06-10T22:27:19.423Z,15.21
2019-06-10T22:29:51.918Z,15.17
2019-06-10T22:32:22.757Z,15.17
2019-06-10T22:34:57.134Z,15.17
2019-06-10T22:37:32.967Z,15.12
2019-06-10T22:40:04.293Z,15.07
2019-06-10T22:42:35.235Z,15.05
2019-06-10T22:45:06.468Z,15.06
2019-06-10T22:47:37.685Z,15.06
2019-06-10T22:50:08.747Z,15.05
2019-06-10T22:52:43.689Z,15.07
2019-06-10T22:55:14.459Z,15.03
2019-06-10T22:57:44.983Z,15.02
2019-06-10T23:00:16.582Z,15.02
2019-06-10T23:02:47.804Z,15.04
2019-06-10T23:05:22.974Z,15.05
2019-06-10T23:07:55.604Z,15.04
2019-06-10T23:10:25.430Z,15.00
2019-06-10T23:12:58.224Z,15.03
2019-06-10T23:15:32.316Z,15.03
2019-06-10T23:18:03.247Z,15.05
2019-06-10T23:20:33.776Z,15.00
2019-06-10T23:23:04.682Z,14.99
2019-06-10T23:25:35.264Z,14.96
2019-06-10T23:28:06.049Z,14.97
2019-06-10T23:30:37.074Z,15.01
2019-06-10T23:33:08.019Z,14.97
2019-06-10T23:35:39.523Z,14.98
2019-06-10T23:38:09.860Z,14.88
2019-06-10T23:40:42.902Z,14.84
2019-06-10T23:43:13.654Z,14.80
2019-06-10T23:45:47.910Z,14.83
2019-06-10T23:48:18.239Z,14.86
2019-06-10T23:50:48.797Z,14.79
2019-06-10T23:53:19.935Z,14.75
2019-06-10T23:55:51.792Z,14.74
2019-06-10T23:58:25.172Z,14.74
